Time;durP1;ratioP1;P1;durP2;ratioP2;P2;SDS_P1;SDS_P2;PMS_P1;PMS_P2;Temp;Humidity;BMP_temperature;BMP_pressure;BME280_temperature;BME280_humidity;BME280_pressure;Samples;Min_cycle;Max_cycle;Signal;HPM_P1;HPM_P2
2022/04/18 00:02:23;;;;;;;8.82;5.53;;;2.10;97.00;;;;;;5046542;28;20144;-87
2022/04/18 00:04:49;;;;;;;8.82;4.70;;;2.00;97.30;;;;;;5048277;28;20116;-88
2022/04/18 00:07:15;;;;;;;7.75;5.28;;;1.90;97.60;;;;;;5048897;28;20033;-88
2022/04/18 00:09:41;;;;;;;7.15;4.82;;;1.90;96.90;;;;;;5049685;28;20034;-87
2022/04/18 00:12:07;;;;;;;7.90;3.97;;;2.10;96.30;;;;;;5047950;28;20039;-88
2022/04/18 00:14:33;;;;;;;7.03;4.45;;;2.20;95.70;;;;;;5047141;28;20048;-87
2022/04/18 00:16:59;;;;;;;7.32;4.13;;;2.20;95.90;;;;;;5051618;28;20027;-87
2022/04/18 00:19:25;;;;;;;8.93;4.03;;;2.00;96.80;;;;;;5100300;28;20029;-87
2022/04/18 00:21:51;;;;;;;10.15;4.60;;;1.90;96.80;;;;;;5046082;28;20450;-89
2022/04/18 00:24:19;;;;;;;9.02;5.20;;;1.80;97.40;;;;;;5030858;28;20064;-89
2022/04/18 00:26:45;;;;;;;7.03;4.80;;;1.90;97.10;;;;;;5048911;28;20017;-88
2022/04/18 00:29:12;;;;;;;6.10;3.67;;;1.90;97.00;;;;;;5073405;28;20035;-88
2022/04/18 00:31:38;;;;;;;8.35;5.13;;;1.90;97.40;;;;;;5026029;28;20493;-89
2022/04/18 00:34:05;;;;;;;7.75;4.72;;;2.00;97.70;;;;;;5047659;28;20048;-86
2022/04/18 00:36:31;;;;;;;9.25;5.43;;;2.10;97.30;;;;;;5047929;28;20029;-87
2022/04/18 00:38:56;;;;;;;9.95;4.95;;;2.00;97.20;;;;;;5031631;28;20139;-89
2022/04/18 00:41:22;;;;;;;9.15;4.88;;;1.90;97.70;;;;;;5044570;28;20099;-87
2022/04/18 00:43:49;;;;;;;8.25;5.07;;;1.90;97.30;;;;;;5030951;28;20033;-88
2022/04/18 00:46:16;;;;;;;12.48;5.40;;;1.80;97.80;;;;;;5028039;28;20041;-87
2022/04/18 00:48:43;;;;;;;8.13;5.50;;;1.80;98.20;;;;;;5021318;28;20029;-87
2022/04/18 00:51:14;;;;;;;9.82;5.07;;;1.80;98.40;;;;;;5040516;28;20550;-88
2022/04/18 00:53:41;;;;;;;8.77;5.47;;;1.80;97.80;;;;;;5030549;28;20029;-87
2022/04/18 00:56:10;;;;;;;10.68;4.97;;;1.70;98.40;;;;;;5026928;28;20048;-87
2022/04/18 00:58:36;;;;;;;10.18;6.43;;;1.70;98.00;;;;;;5047216;28;20021;-87
2022/04/18 01:01:03;;;;;;;11.00;6.00;;;1.60;98.60;;;;;;5046253;28;20036;-87
2022/04/18 01:03:30;;;;;;;9.23;5.90;;;1.60;99.40;;;;;;5030662;28;20033;-87
2022/04/18 01:06:03;;;;;;;14.32;5.95;;;1.50;99.90;;;;;;5046141;28;20040;-88
2022/04/18 01:08:31;;;;;;;10.50;5.50;;;1.50;99.90;;;;;;5043470;28;20178;-88
2022/04/18 01:10:56;;;;;;;10.77;5.50;;;1.60;99.90;;;;;;5047573;28;20086;-87
2022/04/18 01:13:22;;;;;;;10.85;5.78;;;1.60;99.90;;;;;;5024770;28;20045;-88
2022/04/18 01:15:55;;;;;;;16.17;6.65;;;1.60;99.90;;;;;;5047689;28;20037;-89
2022/04/18 01:18:21;;;;;;;9.82;5.20;;;1.60;99.90;;;;;;5041209;28;20162;-89
2022/04/18 01:20:48;;;;;;;7.68;5.25;;;1.50;99.90;;;;;;5047409;28;20259;-88
2022/04/18 01:23:14;;;;;;;13.30;5.88;;;1.60;99.70;;;;;;5047287;28;20491;-87
2022/04/18 01:31:08;;;;;;;10.93;5.70;;;1.40;99.90;;;;;;5046674;28;20095;-88
2022/04/18 01:33:34;;;;;;;10.27;5.50;;;1.40;99.90;;;;;;5047315;28;20029;-86
2022/04/18 01:35:59;;;;;;;13.70;6.40;;;1.30;99.90;;;;;;5034480;28;20123;-88
2022/04/18 01:38:25;;;;;;;10.90;5.57;;;1.30;99.90;;;;;;5053654;28;20021;-87
2022/04/18 01:40:51;;;;;;;10.27;5.78;;;1.20;99.90;;;;;;5070533;28;20029;-89
2022/04/18 01:43:17;;;;;;;9.23;5.22;;;1.20;99.90;;;;;;5057024;28;20365;-86
2022/04/18 01:45:42;;;;;;;12.80;6.80;;;1.30;99.90;;;;;;5051979;28;20029;-88
2022/04/18 01:48:08;;;;;;;10.13;5.88;;;1.10;99.90;;;;;;5047192;28;20497;-89
2022/04/18 01:50:34;;;;;;;10.85;5.03;;;1.10;99.90;;;;;;5046453;28;20479;-89
2022/04/18 01:53:00;;;;;;;10.73;5.00;;;1.10;99.90;;;;;;5044551;28;20109;-89
2022/04/18 01:55:26;;;;;;;8.07;5.25;;;1.10;99.90;;;;;;5047599;28;20108;-88
2022/04/18 01:57:51;;;;;;;10.57;6.20;;;0.90;99.90;;;;;;5051889;28;20450;-89
2022/04/18 02:00:17;;;;;;;10.35;5.45;;;1.10;99.90;;;;;;5046559;28;20029;-89
2022/04/18 02:02:42;;;;;;;8.85;6.07;;;1.00;99.90;;;;;;5044810;28;20461;-88
2022/04/18 02:05:09;;;;;;;9.35;6.07;;;0.90;99.90;;;;;;5031917;28;20029;-87
2022/04/18 02:07:35;;;;;;;9.77;5.28;;;0.90;99.90;;;;;;5048846;28;20071;-87
2022/04/18 02:10:02;;;;;;;10.30;5.97;;;0.80;99.90;;;;;;5049993;28;20044;-86
2022/04/18 02:12:28;;;;;;;11.50;5.68;;;0.90;99.90;;;;;;5029898;28;20038;-86
2022/04/18 02:14:54;;;;;;;10.98;6.88;;;1.00;99.90;;;;;;5032052;28;20083;-87
2022/04/18 02:17:20;;;;;;;11.85;6.68;;;0.90;99.90;;;;;;5040922;28;20729;-87
2022/04/18 02:19:46;;;;;;;9.15;5.63;;;1.00;99.90;;;;;;5047068;28;20436;-87
2022/04/18 02:22:12;;;;;;;13.27;7.65;;;1.20;99.90;;;;;;5066283;28;20551;-87
2022/04/18 02:24:39;;;;;;;14.48;6.13;;;1.20;99.90;;;;;;5049702;28;20059;-87
2022/04/18 02:27:06;;;;;;;10.63;6.55;;;1.10;99.90;;;;;;5033411;28;20529;-87
2022/04/18 02:29:32;;;;;;;9.10;6.70;;;1.10;99.90;;;;;;5034999;28;20056;-89
2022/04/18 02:34:43;;;;;;;12.57;6.63;;;1.00;99.90;;;;;;5051095;28;20047;-87
2022/04/18 02:37:08;;;;;;;11.90;6.40;;;1.00;99.90;;;;;;5063274;28;20041;-88
2022/04/18 02:39:34;;;;;;;10.45;5.80;;;1.00;99.90;;;;;;5068013;28;20123;-89
2022/04/18 02:42:00;;;;;;;12.18;6.18;;;0.90;99.90;;;;;;5050831;28;20029;-87
2022/04/18 02:44:26;;;;;;;9.85;5.63;;;0.80;99.90;;;;;;5049820;28;20021;-88
2022/04/18 02:46:51;;;;;;;11.30;5.68;;;0.80;99.90;;;;;;5045781;28;20044;-88
2022/04/18 02:49:17;;;;;;;10.88;6.47;;;0.70;99.90;;;;;;5049443;28;20033;-88
2022/04/18 02:51:43;;;;;;;10.20;6.30;;;0.60;99.90;;;;;;5045953;28;20086;-89
2022/04/18 02:54:08;;;;;;;11.75;6.45;;;0.60;99.90;;;;;;5049728;28;20044;-86
2022/04/18 02:56:34;;;;;;;10.27;6.30;;;0.70;99.90;;;;;;5050398;28;20086;-87
2022/04/18 02:59:00;;;;;;;12.18;6.22;;;0.70;99.90;;;;;;5032790;28;20036;-88
2022/04/18 03:01:25;;;;;;;10.40;5.50;;;0.70;99.90;;;;;;5047553;28;20036;-89
2022/04/18 03:03:51;;;;;;;10.35;6.60;;;0.80;99.90;;;;;;5048854;28;20099;-88
2022/04/18 03:06:17;;;;;;;14.00;7.35;;;0.80;99.90;;;;;;5027561;28;20491;-88
2022/04/18 03:08:42;;;;;;;13.77;6.90;;;0.80;99.90;;;;;;5032263;28;20033;-89
2022/04/18 03:11:09;;;;;;;9.82;6.00;;;0.80;99.90;;;;;;5049055;28;20548;-87
2022/04/18 03:13:37;;;;;;;11.95;6.35;;;0.70;99.90;;;;;;5048941;28;20056;-87
2022/04/18 03:16:05;;;;;;;12.48;7.25;;;0.60;99.90;;;;;;5031973;28;20032;-88
2022/04/18 03:18:31;;;;;;;15.75;8.68;;;0.60;99.90;;;;;;5065873;28;20488;-88
2022/04/18 03:20:57;;;;;;;14.35;6.97;;;0.70;99.90;;;;;;5049992;28;20033;-87
2022/04/18 03:23:23;;;;;;;12.25;7.97;;;0.60;99.90;;;;;;5045092;28;20104;-87
2022/04/18 03:25:48;;;;;;;13.50;6.93;;;0.50;99.90;;;;;;5048696;28;20127;-87
2022/04/18 03:28:15;;;;;;;10.07;7.30;;;0.40;99.90;;;;;;5047269;28;20029;-88
2022/04/18 03:30:40;;;;;;;12.65;6.57;;;0.40;99.90;;;;;;5031619;28;20071;-88
2022/04/18 03:33:07;;;;;;;11.07;6.90;;;0.30;99.90;;;;;;5048645;28;20052;-88
2022/04/18 03:35:32;;;;;;;10.80;6.55;;;0.20;99.90;;;;;;5048817;28;20060;-88
2022/04/18 03:40:42;;;;;;;11.35;6.20;;;0.30;99.90;;;;;;5048984;28;20299;-87
2022/04/18 03:43:08;;;;;;;12.55;6.70;;;0.20;99.90;;;;;;5047863;28;20491;-87
2022/04/18 03:45:33;;;;;;;11.68;7.22;;;0.20;99.90;;;;;;5046725;28;20021;-88
2022/04/18 03:47:59;;;;;;;15.88;6.80;;;0.10;99.90;;;;;;5045590;28;20377;-86
2022/04/18 03:50:25;;;;;;;13.63;6.70;;;0.10;99.90;;;;;;5061456;28;20432;-86
2022/04/18 03:52:51;;;;;;;10.73;6.82;;;0.10;99.90;;;;;;5046379;28;20128;-86
2022/04/18 03:55:17;;;;;;;13.35;7.05;;;0.10;99.90;;;;;;5053073;28;20568;-89
2022/04/18 03:57:43;;;;;;;16.77;7.13;;;0.00;99.90;;;;;;5047941;28;20031;-88
2022/04/18 04:00:09;;;;;;;16.13;7.78;;;0.00;99.90;;;;;;5048343;28;20063;-87
2022/04/18 04:02:35;;;;;;;11.82;7.63;;;0.00;99.90;;;;;;5047608;28;20033;-89
2022/04/18 04:05:01;;;;;;;14.52;7.03;;;0.10;99.90;;;;;;5031457;28;20029;-89
2022/04/18 04:07:27;;;;;;;11.35;6.03;;;0.10;99.90;;;;;;5047232;28;20167;-89
2022/04/18 04:09:53;;;;;;;11.85;7.05;;;0.00;99.90;;;;;;5042577;28;20115;-89
2022/04/18 04:12:26;;;;;;;13.48;7.30;;;0.00;99.90;;;;;;5031349;28;20037;-87
2022/04/18 04:14:53;;;;;;;12.90;7.38;;;0.10;99.90;;;;;;5028062;28;20093;-88
2022/04/18 04:17:18;;;;;;;12.00;6.78;;;0.20;99.90;;;;;;5048424;28;20127;-88
2022/04/18 04:19:44;;;;;;;12.98;6.95;;;0.10;99.90;;;;;;5030914;28;20646;-87
2022/04/18 04:22:10;;;;;;;12.23;8.20;;;0.10;99.90;;;;;;5048252;28;20539;-87
2022/04/18 04:24:36;;;;;;;12.02;7.72;;;0.00;99.90;;;;;;5046967;28;20423;-88
2022/04/18 04:27:02;;;;;;;13.73;7.68;;;0.00;99.90;;;;;;5030562;28;20040;-87
2022/04/18 04:29:28;;;;;;;11.60;8.02;;;0.00;99.90;;;;;;5047580;28;20028;-86
2022/04/18 04:31:54;;;;;;;16.58;8.95;;;0.10;99.90;;;;;;5048895;28;20076;-87
2022/04/18 04:34:19;;;;;;;12.50;7.57;;;0.10;99.90;;;;;;5046411;28;20503;-87
2022/04/18 04:36:45;;;;;;;12.15;6.40;;;0.10;99.90;;;;;;5047843;28;20047;-89
2022/04/18 04:39:11;;;;;;;13.93;7.13;;;0.20;99.90;;;;;;5038482;28;20046;-88
2022/04/18 04:41:37;;;;;;;10.15;7.00;;;0.20;99.90;;;;;;5064527;28;20480;-87
2022/04/18 04:44:03;;;;;;;12.73;7.10;;;0.20;99.90;;;;;;5028183;28;20033;-88
2022/04/18 04:46:29;;;;;;;11.02;7.28;;;0.10;99.90;;;;;;5044765;28;20068;-88
2022/04/18 04:48:55;;;;;;;12.52;7.15;;;0.00;99.90;;;;;;5031474;28;20110;-87
2022/04/18 04:51:21;;;;;;;12.00;7.70;;;0.10;99.90;;;;;;5045731;28;20036;-88
2022/04/18 04:53:47;;;;;;;14.70;7.43;;;0.10;99.90;;;;;;5048011;28;20553;-88
2022/04/18 04:56:13;;;;;;;11.75;5.90;;;0.30;99.90;;;;;;5049374;28;20112;-88
2022/04/18 04:58:38;;;;;;;11.95;6.65;;;0.40;99.90;;;;;;5046929;28;20160;-87
2022/04/18 05:01:07;;;;;;;13.80;7.38;;;0.40;99.90;;;;;;5046446;28;20112;-86
2022/04/18 05:03:32;;;;;;;12.75;6.85;;;0.60;99.90;;;;;;5047280;28;20029;-87
2022/04/18 05:05:58;;;;;;;11.23;6.53;;;0.70;99.90;;;;;;5048937;28;20033;-89
2022/04/18 05:08:24;;;;;;;13.63;6.57;;;0.80;99.90;;;;;;5030753;28;20040;-89
2022/04/18 05:10:49;;;;;;;10.90;6.60;;;0.80;99.90;;;;;;5051214;28;20361;-89
2022/04/18 05:13:15;;;;;;;12.20;6.80;;;0.90;99.90;;;;;;5051474;28;20492;-89
2022/04/18 05:15:41;;;;;;;13.88;6.47;;;1.00;99.90;;;;;;5029893;28;20039;-89
2022/04/18 05:18:07;;;;;;;12.68;7.47;;;1.00;99.90;;;;;;5050935;28;20036;-90
2022/04/18 05:20:32;;;;;;;10.50;5.30;;;1.10;99.90;;;;;;5050156;28;20041;-88
2022/04/18 05:22:58;;;;;;;13.73;6.53;;;1.20;99.90;;;;;;5050839;28;20491;-87
2022/04/18 05:25:24;;;;;;;11.10;6.35;;;1.30;99.90;;;;;;5050314;28;20471;-87
2022/04/18 05:27:51;;;;;;;10.88;6.97;;;1.50;99.90;;;;;;5049574;28;20029;-86
2022/04/18 05:30:16;;;;;;;9.15;5.45;;;1.50;99.90;;;;;;5045506;28;20036;-89
2022/04/18 05:32:43;;;;;;;9.15;5.68;;;1.50;99.90;;;;;;5050568;28;20061;-86
2022/04/18 05:35:09;;;;;;;8.75;5.35;;;1.50;99.90;;;;;;5025369;28;20040;-86
2022/04/18 05:37:35;;;;;;;9.05;5.15;;;1.60;99.90;;;;;;5050200;28;20028;-87
2022/04/18 05:40:00;;;;;;;11.85;5.68;;;1.50;99.90;;;;;;5033770;28;20187;-88
2022/04/18 05:42:26;;;;;;;9.05;5.72;;;1.50;99.90;;;;;;5047971;28;20540;-87
2022/04/18 05:44:52;;;;;;;8.45;5.53;;;1.60;99.90;;;;;;5049694;28;20032;-91
2022/04/18 05:47:17;;;;;;;11.98;6.03;;;1.70;99.90;;;;;;5030901;28;20074;-89
2022/04/18 05:49:43;;;;;;;9.77;5.43;;;1.80;99.90;;;;;;5047194;28;20083;-88
2022/04/18 05:52:09;;;;;;;8.35;5.57;;;1.80;99.90;;;;;;5047367;28;20499;-87
2022/04/18 05:54:35;;;;;;;10.82;6.28;;;1.90;99.90;;;;;;5065299;28;20025;-90
2022/04/18 05:57:03;;;;;;;10.07;5.55;;;1.90;99.90;;;;;;5032924;28;20467;-87
2022/04/18 05:59:28;;;;;;;12.80;7.50;;;2.00;99.90;;;;;;5049576;28;20110;-86
2022/04/18 06:01:54;;;;;;;9.48;6.72;;;2.00;99.90;;;;;;5050025;28;20025;-87
2022/04/18 06:04:19;;;;;;;8.13;5.78;;;2.10;99.80;;;;;;5059605;28;20085;-88
2022/04/18 06:06:45;;;;;;;9.52;5.53;;;2.20;99.70;;;;;;5064679;28;20056;-87
2022/04/18 06:09:11;;;;;;;9.85;5.22;;;2.20;99.20;;;;;;5056043;28;20059;-88
2022/04/18 06:11:36;;;;;;;11.20;5.65;;;2.20;99.40;;;;;;5050590;28;20083;-89
2022/04/18 06:14:02;;;;;;;12.60;5.93;;;2.20;99.90;;;;;;5084216;28;20044;-87
2022/04/18 06:16:28;;;;;;;11.23;5.78;;;2.20;99.90;;;;;;5049145;28;20033;-86
2022/04/18 06:18:54;;;;;;;12.48;6.30;;;2.40;99.80;;;;;;5049809;28;20040;-86
2022/04/18 06:21:19;;;;;;;9.63;6.05;;;2.50;99.20;;;;;;5051163;28;20021;-90
2022/04/18 06:23:46;;;;;;;7.95;4.80;;;2.60;99.90;;;;;;5049886;28;20446;-89
2022/04/18 06:26:12;;;;;;;13.93;6.65;;;2.70;98.50;;;;;;5052804;28;20047;-89
2022/04/18 06:28:37;;;;;;;12.38;6.78;;;2.80;99.50;;;;;;5044016;28;20123;-88
2022/04/18 06:31:03;;;;;;;11.80;5.95;;;2.70;98.40;;;;;;5054775;28;20044;-89
2022/04/18 06:33:29;;;;;;;8.13;5.75;;;2.90;98.60;;;;;;5033393;28;20048;-86
2022/04/18 06:35:55;;;;;;;9.88;6.35;;;2.90;99.40;;;;;;5049629;28;20562;-88
2022/04/18 06:38:21;;;;;;;8.75;6.03;;;3.10;98.60;;;;;;5050060;28;20021;-89
2022/04/18 06:40:47;;;;;;;11.55;6.05;;;3.20;97.90;;;;;;5049656;28;20395;-87
2022/04/18 06:43:16;;;;;;;11.75;6.32;;;3.30;98.10;;;;;;5047305;28;20111;-89
2022/04/18 06:45:41;;;;;;;9.80;6.30;;;3.50;98.50;;;;;;5049325;28;20051;-88
2022/04/18 06:48:07;;;;;;;9.65;6.22;;;3.40;97.10;;;;;;5064766;28;20765;-88
2022/04/18 06:50:33;;;;;;;12.40;6.70;;;3.50;97.50;;;;;;5046633;28;20103;-87
2022/04/18 06:52:58;;;;;;;10.20;6.85;;;3.60;97.60;;;;;;5046675;28;20033;-90
2022/04/18 06:55:24;;;;;;;11.73;6.50;;;3.80;97.30;;;;;;5048124;28;20068;-88
2022/04/18 06:57:51;;;;;;;13.18;7.68;;;3.90;96.90;;;;;;5050704;28;20228;-89
2022/04/18 07:00:16;;;;;;;13.98;7.93;;;4.00;96.80;;;;;;5049095;28;20056;-89
2022/04/18 07:02:46;;;;;;;10.18;6.07;;;4.10;95.70;;;;;;5049721;28;20500;-88
2022/04/18 07:05:12;;;;;;;13.82;6.85;;;4.20;96.20;;;;;;5028492;28;20091;-90
2022/04/18 07:07:37;;;;;;;12.10;6.55;;;4.30;94.50;;;;;;5031655;28;20025;-89
2022/04/18 07:10:04;;;;;;;9.32;6.38;;;4.50;95.80;;;;;;5048992;28;20809;-91
2022/04/18 07:12:30;;;;;;;13.63;6.90;;;4.60;95.10;;;;;;5048058;28;20032;-90
2022/04/18 07:14:58;;;;;;;12.32;7.15;;;4.80;93.90;;;;;;5050451;28;20514;-89
2022/04/18 07:17:25;;;;;;;10.68;7.05;;;4.80;93.90;;;;;;5049311;28;20044;-90
2022/04/18 07:19:50;;;;;;;13.20;6.68;;;5.00;94.90;;;;;;5051061;28;20109;-88
2022/04/18 07:22:16;;;;;;;11.38;7.30;;;5.10;94.90;;;;;;5034046;28;20567;-89
2022/04/18 07:24:42;;;;;;;12.27;7.30;;;5.10;94.20;;;;;;5049730;28;20033;-90
2022/04/18 07:27:07;;;;;;;9.88;7.03;;;5.40;94.80;;;;;;5049257;28;20025;-90
2022/04/18 07:29:33;;;;;;;11.25;6.60;;;5.50;93.10;;;;;;5049700;28;20036;-88
2022/04/18 07:31:59;;;;;;;13.60;6.47;;;5.70;93.40;;;;;;5045416;28;20064;-89
2022/04/18 07:34:25;;;;;;;10.45;7.90;;;5.90;92.40;;;;;;5047732;28;20021;-87
2022/04/18 07:36:50;;;;;;;11.38;7.97;;;5.90;93.00;;;;;;5046161;28;20150;-87
2022/04/18 07:39:16;;;;;;;12.15;7.15;;;6.10;91.80;;;;;;5047986;28;20032;-93
2022/04/18 07:41:42;;;;;;;12.98;8.50;;;6.30;91.40;;;;;;5030211;28;20035;-90
2022/04/18 07:44:08;;;;;;;9.93;6.72;;;6.50;91.70;;;;;;5041881;28;20029;-92
2022/04/18 07:46:34;;;;;;;11.38;6.80;;;6.40;89.60;;;;;;5045694;28;20033;-92
2022/04/18 07:48:59;;;;;;;10.18;7.35;;;6.50;90.20;;;;;;5041196;28;20029;-90
2022/04/18 07:51:43;;;;;;;16.40;6.57;;;6.80;88.30;;;;;;5043459;28;20538;-91
2022/04/18 07:54:14;;;;;;;11.20;7.30;;;6.90;88.30;;;;;;5045200;28;20032;-93
2022/04/18 07:56:41;;;;;;;10.15;7.00;;;7.20;87.50;;;;;;5028853;28;20032;-92
2022/04/18 07:59:07;;;;;;;24.83;8.38;;;7.20;86.30;;;;;;5046992;28;20025;-93
2022/04/18 08:01:33;;;;;;;12.40;7.25;;;7.30;88.30;;;;;;5045449;28;20033;-92
2022/04/18 08:04:01;;;;;;;10.98;7.00;;;7.50;85.40;;;;;;5042100;28;20036;-91
2022/04/18 08:06:31;;;;;;;9.93;7.65;;;7.50;83.40;;;;;;5046117;28;20029;-90
2022/04/18 08:08:57;;;;;;;11.90;7.53;;;7.60;85.00;;;;;;5041032;28;20029;-91
2022/04/18 08:11:23;;;;;;;12.23;7.28;;;7.80;83.10;;;;;;5042429;28;20032;-92
2022/04/18 08:13:50;;;;;;;10.55;6.90;;;8.10;80.30;;;;;;5068418;28;20110;-93
2022/04/18 08:16:17;;;;;;;11.82;6.65;;;8.20;80.80;;;;;;5040457;28;20104;-91
2022/04/18 08:18:44;;;;;;;10.52;6.68;;;8.30;76.50;;;;;;5043538;28;20048;-85
2022/04/18 08:21:17;;;;;;;9.52;7.07;;;8.60;78.30;;;;;;5038051;28;20041;-83
2022/04/18 08:23:51;;;;;;;8.98;5.97;;;8.90;74.30;;;;;;5033178;28;20025;-87
2022/04/18 08:26:17;;;;;;;9.85;6.13;;;9.10;71.80;;;;;;5037656;28;20048;-86
2022/04/18 08:28:43;;;;;;;10.27;5.97;;;9.30;68.00;;;;;;5040677;28;20038;-89
2022/04/18 08:31:09;;;;;;;8.35;5.30;;;9.60;63.20;;;;;;5043422;28;20033;-88
2022/04/18 08:33:35;;;;;;;8.43;4.32;;;9.90;56.60;;;;;;5042358;28;20037;-90
2022/04/18 08:36:01;;;;;;;7.40;5.38;;;9.80;51.80;;;;;;5041787;28;20033;-93
2022/04/18 08:38:27;;;;;;;7.72;5.50;;;9.90;56.50;;;;;;5043947;28;20025;-90
2022/04/18 08:40:56;;;;;;;9.15;5.90;;;10.00;57.10;;;;;;5029487;28;20078;-89
2022/04/18 08:43:22;;;;;;;7.18;5.13;;;10.20;54.40;;;;;;5045171;28;20021;-91
2022/04/18 08:45:48;;;;;;;9.52;4.55;;;10.50;56.30;;;;;;5051184;28;20024;-88
2022/04/18 08:53:43;;;;;;;9.93;5.65;;;10.20;52.80;;;;;;5040230;28;20094;-83
2022/04/18 08:56:09;;;;;;;9.18;5.72;;;10.20;53.30;;;;;;5045070;28;20109;-87
2022/04/18 08:58:35;;;;;;;9.88;5.55;;;10.40;51.80;;;;;;5044184;28;20104;-93
2022/04/18 09:01:02;;;;;;;8.45;5.32;;;10.40;50.50;;;;;;5047942;28;20419;-83
2022/04/18 09:03:28;;;;;;;9.55;5.65;;;10.40;49.70;;;;;;5050978;28;20045;-90
2022/04/18 09:06:11;;;;;;;12.43;5.88;;;10.50;51.70;;;;;;5049481;28;20052;-87
2022/04/18 09:08:51;;;;;;;12.68;5.30;;;10.50;50.00;;;;;;5047663;28;20048;-88
2022/04/18 09:11:37;;;;;;;8.13;5.68;;;10.70;48.80;;;;;;5050632;28;20056;-87
2022/04/18 09:14:07;;;;;;;6.55;5.05;;;10.80;48.60;;;;;;5028662;28;20044;-87
2022/04/18 09:16:34;;;;;;;7.27;4.93;;;10.80;47.90;;;;;;5060429;28;20060;-87
2022/04/18 09:19:15;;;;;;;9.27;6.38;;;11.20;52.10;;;;;;5030571;28;20314;-88
2022/04/18 09:22:00;;;;;;;9.20;5.18;;;11.40;50.30;;;;;;5046361;28;20033;-88
2022/04/18 09:24:35;;;;;;;8.18;5.18;;;11.30;49.20;;;;;;5049015;28;20025;-90
2022/04/18 09:27:13;;;;;;;11.57;6.53;;;11.50;48.20;;;;;;5046233;28;20072;-86
2022/04/18 09:29:40;;;;;;;8.43;4.97;;;11.50;46.80;;;;;;5049417;28;20028;-86
2022/04/18 09:32:13;;;;;;;10.45;5.53;;;11.50;46.50;;;;;;5047945;28;20044;-86
2022/04/18 09:34:40;;;;;;;8.07;5.18;;;11.80;46.00;;;;;;5079891;28;20029;-86
2022/04/18 09:37:09;;;;;;;10.30;5.35;;;12.00;45.40;;;;;;5047707;28;20033;-86
2022/04/18 09:39:36;;;;;;;8.02;4.97;;;12.20;45.70;;;;;;5032108;28;20377;-86
2022/04/18 09:42:10;;;;;;;8.70;5.05;;;12.30;43.50;;;;;;5046273;28;20032;-85
2022/04/18 09:44:37;;;;;;;9.65;5.43;;;12.30;45.40;;;;;;5030776;28;20033;-85
2022/04/18 09:47:03;;;;;;;11.13;5.68;;;12.50;46.10;;;;;;5050906;28;20040;-89
2022/04/18 09:49:40;;;;;;;8.20;5.80;;;12.50;45.30;;;;;;5044747;28;20504;-87
2022/04/18 09:52:17;;;;;;;9.68;6.05;;;12.50;45.70;;;;;;5065244;28;20021;-86
2022/04/18 09:54:49;;;;;;;11.38;5.47;;;12.80;44.20;;;;;;5046471;28;20060;-87
2022/04/18 09:57:28;;;;;;;7.70;5.22;;;13.00;45.00;;;;;;5050234;28;20054;-86
2022/04/18 09:59:57;;;;;;;9.23;5.32;;;13.30;43.20;;;;;;5044951;28;20028;-84
2022/04/18 10:02:24;;;;;;;5.65;4.10;;;13.30;41.30;;;;;;5044605;28;20584;-82
2022/04/18 10:04:52;;;;;;;7.93;4.20;;;13.30;42.80;;;;;;5048266;28;20404;-84
2022/04/18 10:07:18;;;;;;;7.53;5.20;;;13.30;37.40;;;;;;5049578;28;20603;-84
2022/04/18 10:09:45;;;;;;;7.22;4.40;;;13.40;42.00;;;;;;5047189;28;20691;-86
2022/04/18 10:12:13;;;;;;;6.43;4.65;;;13.70;40.40;;;;;;5047229;28;20090;-85
2022/04/18 10:14:40;;;;;;;8.43;5.82;;;13.60;42.70;;;;;;5044507;28;20167;-85
2022/04/18 10:17:08;;;;;;;8.45;5.57;;;13.80;40.10;;;;;;5043478;28;20085;-85
2022/04/18 10:19:55;;;;;;;7.97;4.93;;;13.80;40.50;;;;;;5047350;28;20032;-90
2022/04/18 10:22:29;;;;;;;6.38;5.05;;;13.60;39.20;;;;;;5058370;28;20024;-85
2022/04/18 10:25:23;;;;;;;8.60;4.97;;;13.50;39.30;;;;;;5055403;28;20025;-84
2022/04/18 10:27:48;;;;;;;7.90;5.88;;;13.30;39.30;;;;;;5040834;28;20090;-85
2022/04/18 10:30:15;;;;;;;7.85;5.50;;;13.40;41.60;;;;;;5036809;28;20037;-84
2022/04/18 10:32:41;;;;;;;7.43;5.53;;;13.60;40.60;;;;;;5024859;28;20060;-91
2022/04/18 10:35:07;;;;;;;8.35;5.38;;;13.90;40.70;;;;;;5037131;28;20402;-83
2022/04/18 10:37:33;;;;;;;8.10;5.03;;;13.90;39.80;;;;;;5035300;28;20044;-84
2022/04/18 10:40:00;;;;;;;7.47;4.72;;;14.10;41.70;;;;;;5056823;28;20024;-83
2022/04/18 10:42:33;;;;;;;7.22;4.45;;;13.90;38.00;;;;;;5038658;28;20086;-83
2022/04/18 10:45:12;;;;;;;8.00;5.22;;;14.30;39.70;;;;;;5052775;28;20024;-83
2022/04/18 10:47:55;;;;;;;7.63;5.07;;;14.20;37.40;;;;;;5045083;28;20056;-83
2022/04/18 10:50:24;;;;;;;7.90;5.10;;;14.40;39.00;;;;;;5065893;28;20028;-84
2022/04/18 10:53:10;;;;;;;8.60;4.75;;;14.80;37.00;;;;;;5037862;28;20399;-84
2022/04/18 10:55:37;;;;;;;9.43;5.45;;;15.00;39.50;;;;;;5049569;28;20029;-84
2022/04/18 10:58:20;;;;;;;6.47;4.72;;;15.10;35.60;;;;;;5047677;28;20057;-84
2022/04/18 11:00:46;;;;;;;7.13;5.25;;;15.90;34.00;;;;;;5039001;28;20030;-83
2022/04/18 11:03:12;;;;;;;9.07;5.57;;;15.20;34.10;;;;;;5066090;28;20174;-84
2022/04/18 11:05:38;;;;;;;8.00;5.03;;;15.80;33.20;;;;;;5048203;28;20028;-85
2022/04/18 11:08:24;;;;;;;10.65;5.47;;;16.20;32.70;;;;;;5045941;28;20037;-86
2022/04/18 11:10:50;;;;;;;8.15;5.13;;;16.20;33.30;;;;;;5046121;28;20151;-86
2022/04/18 11:13:15;;;;;;;8.40;5.65;;;16.20;33.90;;;;;;5044966;28;20022;-86
2022/04/18 11:15:41;;;;;;;9.85;5.72;;;16.60;32.60;;;;;;5046579;28;20043;-86
2022/04/18 11:18:28;;;;;;;7.63;4.78;;;16.70;32.70;;;;;;5047386;28;20040;-85
2022/04/18 11:20:54;;;;;;;10.32;6.18;;;17.00;32.30;;;;;;5047151;28;20075;-85
2022/04/18 11:23:30;;;;;;;7.88;5.43;;;17.50;34.80;;;;;;5042953;28;20092;-86
2022/04/18 11:26:04;;;;;;;8.15;5.63;;;17.20;32.20;;;;;;5045283;28;20036;-86
2022/04/18 11:28:34;;;;;;;8.10;5.30;;;17.60;31.70;;;;;;5057221;28;20037;-85
2022/04/18 11:31:00;;;;;;;6.65;4.82;;;17.80;30.20;;;;;;5046489;28;20028;-86
2022/04/18 11:33:25;;;;;;;8.13;5.30;;;17.90;30.00;;;;;;5045086;28;20044;-86
2022/04/18 11:35:59;;;;;;;9.43;5.43;;;18.20;29.40;;;;;;5043692;28;20029;-85
2022/04/18 11:38:25;;;;;;;9.68;5.40;;;17.80;29.30;;;;;;5061243;28;20044;-86
2022/04/18 11:40:51;;;;;;;7.32;5.45;;;17.00;31.70;;;;;;5048740;28;20025;-86
2022/04/18 11:43:17;;;;;;;7.18;5.25;;;17.60;31.00;;;;;;5043217;28;20029;-85
2022/04/18 11:45:43;;;;;;;9.15;6.20;;;18.30;29.30;;;;;;5044346;28;20077;-86
2022/04/18 11:48:13;;;;;;;10.35;5.53;;;18.60;30.20;;;;;;5040776;28;20513;-86
2022/04/18 11:50:43;;;;;;;8.98;6.25;;;18.50;29.30;;;;;;5027231;28;20075;-85
2022/04/18 11:53:09;;;;;;;10.43;6.50;;;18.60;29.10;;;;;;5044061;28;20029;-85
2022/04/18 11:56:03;;;;;;;8.35;5.30;;;19.00;28.70;;;;;;5045145;28;20586;-86
2022/04/18 11:58:28;;;;;;;10.80;6.55;;;19.40;28.60;;;;;;5025128;28;20095;-85
2022/04/18 12:09:11;;;;;;;10.93;5.75;;;19.10;28.50;;;;;;5038541;28;20099;-91
2022/04/18 12:11:37;;;;;;;9.27;5.88;;;19.30;27.40;;;;;;5049437;28;20045;-93
2022/04/18 12:14:04;;;;;;;6.65;4.90;;;19.40;27.90;;;;;;5036159;28;20022;-82
2022/04/18 12:16:34;;;;;;;10.82;5.88;;;19.60;28.40;;;;;;5039361;28;20024;-82
2022/04/18 12:19:00;;;;;;;9.60;5.80;;;19.80;28.00;;;;;;5045943;28;20506;-82
2022/04/18 12:21:27;;;;;;;10.20;6.35;;;20.30;26.40;;;;;;5044524;28;20033;-93
2022/04/18 12:23:55;;;;;;;9.90;6.50;;;20.30;27.10;;;;;;5042944;28;20028;-86
2022/04/18 12:26:25;;;;;;;8.48;6.03;;;20.60;25.50;;;;;;5037755;28;20040;-88
2022/04/18 12:28:57;;;;;;;11.73;6.18;;;20.90;26.60;;;;;;5043982;28;20112;-88
2022/04/18 12:31:23;;;;;;;8.68;5.38;;;21.10;26.30;;;;;;5043661;28;20040;-91
2022/04/18 12:33:50;;;;;;;9.00;5.88;;;21.30;26.00;;;;;;5042155;28;20033;-88
2022/04/18 12:36:27;;;;;;;8.95;5.78;;;21.10;25.60;;;;;;5041370;28;20055;-88
2022/04/18 12:38:53;;;;;;;8.70;5.65;;;20.80;26.20;;;;;;5025487;28;20048;-87
2022/04/18 12:41:32;;;;;;;9.27;5.65;;;20.50;25.50;;;;;;5041062;28;20119;-88
2022/04/18 12:43:59;;;;;;;8.20;5.90;;;20.30;25.90;;;;;;5042695;28;20120;-89
2022/04/18 12:46:29;;;;;;;8.40;5.35;;;21.20;24.60;;;;;;5040273;28;20057;-88
2022/04/18 12:48:55;;;;;;;8.30;5.60;;;21.40;25.40;;;;;;5036871;28;20056;-88
2022/04/18 12:51:35;;;;;;;9.00;5.93;;;21.50;24.40;;;;;;5025513;28;20072;-88
2022/04/18 12:54:01;;;;;;;8.35;5.05;;;21.10;25.90;;;;;;5028650;28;20033;-88
2022/04/18 12:56:28;;;;;;;7.38;5.18;;;22.40;26.30;;;;;;5060961;28;20037;-89
2022/04/18 12:58:53;;;;;;;9.07;5.95;;;23.00;24.40;;;;;;5043685;28;20192;-89
2022/04/18 13:01:29;;;;;;;6.97;5.50;;;22.90;23.40;;;;;;5042994;28;20138;-87
2022/04/18 13:03:55;;;;;;;10.07;6.00;;;22.60;24.10;;;;;;5061806;28;20029;-88
2022/04/18 13:06:28;;;;;;;8.13;5.70;;;21.90;24.80;;;;;;5045047;28;20056;-89
2022/04/18 13:09:03;;;;;;;8.18;5.28;;;21.90;24.10;;;;;;5060378;28;20033;-88
2022/04/18 13:11:36;;;;;;;7.70;5.78;;;21.90;24.00;;;;;;5045733;28;20040;-88
2022/04/18 13:14:03;;;;;;;7.47;6.20;;;21.90;26.10;;;;;;5041462;28;20036;-88
2022/04/18 13:16:29;;;;;;;8.30;5.85;;;21.70;24.20;;;;;;5045768;28;20033;-89